Time;durP1;ratioP1;P1;durP2;ratioP2;P2;SDS_P1;SDS_P2;PMS_P1;PMS_P2;Temp;Humidity;BMP_temperature;BMP_pressure;BME280_temperature;BME280_humidity;BME280_pressure;Samples;Min_cycle;Max_cycle;Signal;HPM_P1;HPM_P2
2023/11/03 00:00:00;;;;;;;2.97;0.43;;;12.70;70.90;;;;;;2208288;57;21036;-66
2023/11/03 00:02:26;;;;;;;2.08;0.70;;;12.70;71.00;;;;;;2208130;58;20974;-67
2023/11/03 00:04:53;;;;;;;2.75;0.50;;;12.70;71.00;;;;;;2426328;57;20986;-67
2023/11/03 00:07:20;;;;;;;1.33;0.45;;;12.70;71.00;;;;;;2421991;56;21885;-67
2023/11/03 00:09:48;;;;;;;1.98;0.50;;;12.70;71.10;;;;;;2201146;57;21009;-67
2023/11/03 00:12:14;;;;;;;2.65;0.50;;;12.70;71.10;;;;;;2425975;57;20997;-67
2023/11/03 00:14:46;;;;;;;2.60;0.60;;;12.70;71.10;;;;;;2422732;56;21023;-67
2023/11/03 00:17:16;;;;;;;1.65;0.50;;;12.60;70.90;;;;;;2418408;56;21077;-67
2023/11/03 00:19:46;;;;;;;1.08;0.30;;;12.60;70.90;;;;;;2208166;57;20946;-66
2023/11/03 00:22:14;;;;;;;1.80;0.60;;;12.60;71.10;;;;;;2208609;58;21113;-67
2023/11/03 00:24:40;;;;;;;3.22;0.50;;;12.60;71.00;;;;;;2425879;57;21491;-67
2023/11/03 00:27:08;;;;;;;1.60;0.45;;;12.60;71.10;;;;;;2208846;58;20922;-66
2023/11/03 00:29:34;;;;;;;1.15;0.32;;;12.60;71.10;;;;;;2208659;58;21455;-68
2023/11/03 00:32:00;;;;;;;2.28;0.68;;;12.60;71.20;;;;;;2209048;58;21557;-67
2023/11/03 00:34:26;;;;;;;2.33;0.40;;;12.60;71.20;;;;;;2208178;58;21065;-68
2023/11/03 00:36:53;;;;;;;2.75;0.62;;;12.50;71.00;;;;;;2208443;58;20984;-68
2023/11/03 00:39:31;;;;;;;0.68;0.30;;;12.50;70.90;;;;;;2209099;57;21073;-67
2023/11/03 00:41:57;;;;;;;1.15;0.40;;;12.40;70.30;;;;;;2204718;57;21797;-68
2023/11/03 00:44:25;;;;;;;1.30;0.50;;;12.50;70.80;;;;;;2205107;57;20990;-66
2023/11/03 00:46:52;;;;;;;1.33;0.40;;;12.50;70.80;;;;;;2209241;57;21449;-67
2023/11/03 00:49:20;;;;;;;0.98;0.40;;;12.40;70.80;;;;;;2418888;56;20930;-68
2023/11/03 00:51:47;;;;;;;1.20;0.40;;;12.40;70.90;;;;;;2207086;57;20985;-67
2023/11/03 00:54:14;;;;;;;3.53;0.70;;;12.40;71.00;;;;;;2426322;57;20981;-67
2023/11/03 00:56:41;;;;;;;1.12;0.40;;;12.30;70.90;;;;;;2425938;57;21026;-68
2023/11/03 00:59:07;;;;;;;1.12;0.43;;;12.40;71.00;;;;;;2209427;59;21007;-67
2023/11/03 01:01:34;;;;;;;1.77;0.45;;;12.40;71.10;;;;;;2425744;57;21227;-68
2023/11/03 01:04:03;;;;;;;1.73;0.50;;;12.30;71.10;;;;;;2208371;59;20966;-67
2023/11/03 01:06:30;;;;;;;5.25;0.70;;;12.30;71.10;;;;;;2208720;59;21027;-67
2023/11/03 01:08:58;;;;;;;2.00;0.60;;;12.30;71.10;;;;;;2208502;58;21037;-67
2023/11/03 01:11:26;;;;;;;0.98;0.40;;;12.30;71.10;;;;;;2425929;57;21533;-67
2023/11/03 01:13:53;;;;;;;1.50;0.50;;;12.30;71.10;;;;;;2204458;57;21097;-67
2023/11/03 01:16:22;;;;;;;1.92;0.50;;;12.30;71.20;;;;;;2424526;56;21689;-68
2023/11/03 01:18:49;;;;;;;1.95;0.60;;;12.30;71.20;;;;;;2208507;58;21041;-68
2023/11/03 01:21:18;;;;;;;1.80;0.60;;;12.30;71.20;;;;;;2425845;57;20942;-67
2023/11/03 01:23:48;;;;;;;3.40;0.93;;;12.30;71.00;;;;;;2424976;56;20990;-67
2023/11/03 01:26:15;;;;;;;1.48;0.43;;;12.30;71.00;;;;;;2199667;57;20957;-67
2023/11/03 01:28:43;;;;;;;1.77;0.50;;;12.20;71.00;;;;;;2426341;57;20990;-68
2023/11/03 01:31:10;;;;;;;2.55;1.10;;;12.20;71.00;;;;;;2209302;58;20970;-67
2023/11/03 01:33:37;;;;;;;2.00;0.60;;;12.20;71.00;;;;;;2208029;58;20950;-66
2023/11/03 01:36:04;;;;;;;2.55;0.52;;;12.20;71.00;;;;;;2208339;59;21032;-67
2023/11/03 01:38:31;;;;;;;2.83;0.47;;;12.20;71.10;;;;;;2425986;57;21025;-67
2023/11/03 01:41:00;;;;;;;3.72;0.60;;;12.20;71.10;;;;;;2426344;57;21502;-66
2023/11/03 01:43:26;;;;;;;2.83;0.55;;;12.20;71.20;;;;;;2425820;57;20966;-68
2023/11/03 01:45:56;;;;;;;2.70;0.50;;;12.10;71.10;;;;;;2285210;57;1306204;-67
2023/11/03 01:48:23;;;;;;;1.73;0.65;;;12.10;71.10;;;;;;2205998;57;20954;-67
2023/11/03 01:50:49;;;;;;;2.85;1.17;;;12.10;71.10;;;;;;2202206;57;22028;-68
2023/11/03 01:53:16;;;;;;;1.87;0.57;;;12.10;71.10;;;;;;2425644;57;21014;-67
2023/11/03 01:55:42;;;;;;;1.50;0.45;;;12.10;71.10;;;;;;2208359;58;20986;-66
2023/11/03 01:58:10;;;;;;;1.62;0.50;;;12.10;71.10;;;;;;2425992;57;20970;-68
2023/11/03 02:00:37;;;;;;;0.85;0.40;;;12.10;71.20;;;;;;2208089;57;20970;-67
2023/11/03 02:03:05;;;;;;;2.90;0.75;;;12.10;71.20;;;;;;2426048;57;21041;-68
2023/11/03 02:05:31;;;;;;;1.10;0.40;;;12.10;71.20;;;;;;2210743;57;21030;-66
2023/11/03 02:07:59;;;;;;;2.42;0.57;;;12.10;71.30;;;;;;2425534;57;21038;-67
2023/11/03 02:10:28;;;;;;;1.52;0.52;;;12.10;71.30;;;;;;2208104;58;21065;-68
2023/11/03 02:12:54;;;;;;;1.00;0.40;;;12.10;71.40;;;;;;2208286;59;20985;-68
2023/11/03 02:15:21;;;;;;;0.77;0.40;;;12.10;71.40;;;;;;2207916;57;20974;-66
2023/11/03 02:17:48;;;;;;;3.15;0.50;;;12.10;71.40;;;;;;2208376;58;21006;-66
2023/11/03 02:20:14;;;;;;;3.00;0.47;;;12.10;71.40;;;;;;2208383;58;21019;-68
2023/11/03 02:22:43;;;;;;;3.97;0.50;;;12.10;71.40;;;;;;2424786;56;21097;-68
2023/11/03 02:25:10;;;;;;;1.67;0.60;;;12.10;71.50;;;;;;2208381;59;21019;-67
2023/11/03 02:27:36;;;;;;;1.62;0.60;;;12.10;71.60;;;;;;2208117;58;20997;-68
2023/11/03 02:30:04;;;;;;;2.80;0.55;;;12.10;71.60;;;;;;2425716;57;21419;-67
2023/11/03 02:32:30;;;;;;;2.55;0.50;;;12.10;71.70;;;;;;2208550;58;20985;-67
2023/11/03 02:34:56;;;;;;;3.20;0.50;;;12.10;71.70;;;;;;2209210;57;20974;-67
2023/11/03 02:37:25;;;;;;;1.62;0.50;;;12.10;71.70;;;;;;2426107;57;21022;-68
2023/11/03 02:39:52;;;;;;;2.75;0.57;;;12.10;71.70;;;;;;2425841;57;20934;-67
2023/11/03 02:42:21;;;;;;;2.90;0.62;;;12.10;71.70;;;;;;2424910;57;21018;-66
2023/11/03 02:44:51;;;;;;;2.58;0.50;;;12.10;71.70;;;;;;2425350;57;21104;-68
2023/11/03 02:47:18;;;;;;;2.08;0.45;;;12.20;71.70;;;;;;2208800;58;21061;-68
2023/11/03 02:49:44;;;;;;;1.87;0.55;;;12.20;71.80;;;;;;2424550;56;20995;-67
2023/11/03 02:52:10;;;;;;;2.80;0.52;;;12.20;71.80;;;;;;2413137;56;21027;-67
2023/11/03 02:54:49;;;;;;;2.72;0.70;;;12.20;71.80;;;;;;2203359;57;21082;-67
2023/11/03 02:57:15;;;;;;;1.35;0.50;;;12.20;71.20;;;;;;2208187;58;21498;-68
2023/11/03 02:59:48;;;;;;;1.40;0.55;;;12.20;71.70;;;;;;2208365;59;20982;-66
2023/11/03 03:02:14;;;;;;;1.98;0.60;;;12.20;71.60;;;;;;2208839;59;21368;-67
2023/11/03 03:04:41;;;;;;;2.50;0.85;;;12.20;71.60;;;;;;2426092;56;22243;-67
2023/11/03 03:07:09;;;;;;;1.67;0.50;;;12.30;71.70;;;;;;2425863;57;20970;-68
2023/11/03 03:09:35;;;;;;;3.85;0.40;;;12.20;71.60;;;;;;2208495;58;21073;-67
2023/11/03 03:12:02;;;;;;;1.73;0.55;;;12.20;71.60;;;;;;2208127;57;21533;-67
2023/11/03 03:14:28;;;;;;;2.45;0.50;;;12.30;71.70;;;;;;2207817;58;20962;-67
2023/11/03 03:16:55;;;;;;;1.75;0.50;;;12.20;71.60;;;;;;2425382;57;21481;-68
2023/11/03 03:19:24;;;;;;;1.20;0.47;;;12.30;71.60;;;;;;2425815;57;21569;-67
2023/11/03 03:21:51;;;;;;;1.20;0.40;;;12.30;71.60;;;;;;2208418;57;20958;-67
2023/11/03 03:24:17;;;;;;;2.08;0.68;;;12.30;71.60;;;;;;2208357;57;21673;-67
2023/11/03 03:26:44;;;;;;;2.92;0.50;;;12.30;71.60;;;;;;2207862;59;21014;-67
2023/11/03 03:29:10;;;;;;;2.60;0.52;;;12.30;71.60;;;;;;2426060;57;20978;-67
2023/11/03 03:31:36;;;;;;;1.45;0.57;;;12.20;71.50;;;;;;2207972;57;21514;-68
2023/11/03 03:34:03;;;;;;;4.37;0.60;;;12.30;71.50;;;;;;2420442;56;20974;-67
2023/11/03 03:36:38;;;;;;;1.83;0.52;;;12.30;71.40;;;;;;2414152;56;20980;-68
2023/11/03 03:39:05;;;;;;;2.10;0.65;;;12.20;70.90;;;;;;2208343;59;20982;-68
2023/11/03 03:41:31;;;;;;;2.00;0.55;;;12.20;71.30;;;;;;2425896;56;21026;-67
2023/11/03 03:43:57;;;;;;;1.62;0.73;;;12.30;71.40;;;;;;2208090;59;20966;-67
2023/11/03 03:46:24;;;;;;;1.80;0.75;;;12.30;71.40;;;;;;2426263;56;20970;-67
2023/11/03 03:48:51;;;;;;;1.90;0.60;;;12.20;71.30;;;;;;2424620;56;21018;-68
2023/11/03 03:51:20;;;;;;;2.70;0.73;;;12.20;71.40;;;;;;2207901;57;20934;-66
2023/11/03 03:53:47;;;;;;;2.22;0.73;;;12.20;71.30;;;;;;2203219;57;20993;-67
2023/11/03 03:56:14;;;;;;;3.08;0.60;;;12.20;71.30;;;;;;2204667;57;21091;-67
2023/11/03 03:58:41;;;;;;;3.17;0.60;;;12.20;71.40;;;;;;2207359;57;21025;-67
2023/11/03 04:01:08;;;;;;;2.53;0.73;;;12.20;71.40;;;;;;2416119;56;20970;-67
2023/11/03 04:03:35;;;;;;;1.95;0.62;;;12.20;71.50;;;;;;2424152;56;21025;-66
2023/11/03 04:06:03;;;;;;;2.28;0.68;;;12.20;71.50;;;;;;2425855;57;21042;-67
2023/11/03 04:08:31;;;;;;;2.03;0.62;;;12.20;71.50;;;;;;2208528;58;21033;-68
2023/11/03 04:10:57;;;;;;;2.87;0.65;;;12.20;71.50;;;;;;2426495;57;21523;-67
2023/11/03 04:13:26;;;;;;;2.65;0.68;;;12.20;71.60;;;;;;2208487;58;20966;-67
2023/11/03 04:15:52;;;;;;;1.27;0.40;;;12.20;71.50;;;;;;2208002;57;21875;-68
2023/11/03 04:18:19;;;;;;;2.42;0.60;;;12.20;71.60;;;;;;2421233;56;21131;-67
2023/11/03 04:20:46;;;;;;;3.28;0.52;;;12.20;71.60;;;;;;2202797;57;20985;-66
2023/11/03 04:23:13;;;;;;;3.08;0.88;;;12.20;71.60;;;;;;2426178;57;21034;-67
2023/11/03 04:25:40;;;;;;;2.40;0.70;;;12.30;72.00;;;;;;2425400;56;21439;-67
2023/11/03 04:28:09;;;;;;;2.20;0.68;;;12.30;71.70;;;;;;2425840;57;21893;-68
2023/11/03 04:30:39;;;;;;;1.85;0.50;;;12.30;71.70;;;;;;2208306;57;20934;-68
2023/11/03 04:33:05;;;;;;;3.10;0.70;;;12.30;71.70;;;;;;2203342;57;21860;-68
2023/11/03 04:35:32;;;;;;;5.25;0.82;;;12.20;71.60;;;;;;2206531;58;20950;-66
2023/11/03 04:37:58;;;;;;;1.52;0.57;;;12.30;71.70;;;;;;2208667;58;20969;-67
2023/11/03 04:40:24;;;;;;;2.97;0.55;;;12.30;71.70;;;;;;2426573;57;20930;-68
2023/11/03 04:42:51;;;;;;;2.53;0.55;;;12.30;71.70;;;;;;2208116;59;21093;-66
2023/11/03 04:45:20;;;;;;;2.90;0.75;;;12.30;71.70;;;;;;2208707;59;20972;-67
2023/11/03 04:47:47;;;;;;;3.25;1.35;;;12.30;71.60;;;;;;2424205;56;21009;-67
2023/11/03 04:50:13;;;;;;;2.12;0.90;;;12.30;71.60;;;;;;2200468;57;21039;-67
2023/11/03 04:52:39;;;;;;;3.10;0.68;;;12.30;71.60;;;;;;2426123;56;21012;-67
2023/11/03 04:55:09;;;;;;;3.70;0.70;;;12.30;71.60;;;;;;2208712;58;21856;-67
2023/11/03 04:57:35;;;;;;;2.60;0.70;;;12.30;71.50;;;;;;2425735;56;20982;-68
2023/11/03 05:00:03;;;;;;;2.05;0.60;;;12.30;71.50;;;;;;2425343;57;21411;-67
2023/11/03 05:02:29;;;;;;;2.67;0.60;;;12.30;71.50;;;;;;2209007;57;21512;-67
2023/11/03 05:04:59;;;;;;;2.47;0.80;;;12.30;71.50;;;;;;2415009;56;21099;-67
2023/11/03 05:07:25;;;;;;;2.45;0.68;;;12.30;71.50;;;;;;2425824;56;20985;-67
2023/11/03 05:09:51;;;;;;;3.90;0.70;;;12.30;71.50;;;;;;2425818;57;21626;-67
2023/11/03 05:12:18;;;;;;;3.62;0.80;;;12.40;71.70;;;;;;2418853;56;21358;-68
2023/11/03 05:14:44;;;;;;;3.58;0.70;;;12.30;71.60;;;;;;2205020;57;21004;-67
2023/11/03 05:17:11;;;;;;;2.25;0.70;;;12.30;71.60;;;;;;2425632;57;20983;-67
2023/11/03 05:19:37;;;;;;;3.33;1.00;;;12.40;71.70;;;;;;2207843;58;20973;-68
2023/11/03 05:22:04;;;;;;;3.37;1.00;;;12.30;71.70;;;;;;2425639;56;20977;-68
2023/11/03 05:24:31;;;;;;;3.08;0.90;;;12.40;71.80;;;;;;2208621;59;20978;-67
2023/11/03 05:26:57;;;;;;;1.75;0.55;;;12.30;71.70;;;;;;2208244;58;21005;-67
2023/11/03 05:29:24;;;;;;;3.50;0.70;;;12.40;71.70;;;;;;2426165;57;20998;-67
2023/11/03 05:31:51;;;;;;;5.82;0.90;;;12.30;71.60;;;;;;2208695;59;21497;-66
2023/11/03 05:34:21;;;;;;;4.70;0.80;;;12.40;71.80;;;;;;2208739;58;21042;-68
2023/11/03 05:36:47;;;;;;;2.55;0.70;;;12.40;71.80;;;;;;2426184;57;20970;-67
2023/11/03 05:39:17;;;;;;;3.37;0.70;;;12.40;71.70;;;;;;2208210;58;21039;-67
2023/11/03 05:41:43;;;;;;;3.17;0.80;;;12.40;71.70;;;;;;2208718;59;21753;-67
2023/11/03 05:44:09;;;;;;;2.60;0.80;;;12.40;71.70;;;;;;2208778;57;21026;-67
2023/11/03 05:46:35;;;;;;;2.92;0.80;;;12.40;71.70;;;;;;2208930;59;21026;-67
2023/11/03 05:49:02;;;;;;;2.80;0.77;;;12.40;71.70;;;;;;2208577;58;20933;-67
2023/11/03 05:51:28;;;;;;;2.10;0.70;;;12.40;71.70;;;;;;2208611;58;21032;-67
2023/11/03 05:53:55;;;;;;;2.50;0.60;;;12.40;71.70;;;;;;2425727;56;21570;-67
2023/11/03 05:56:21;;;;;;;2.78;0.68;;;12.50;71.80;;;;;;2208916;59;21034;-67
2023/11/03 05:58:47;;;;;;;1.92;0.68;;;12.50;71.90;;;;;;2426088;56;20946;-68
2023/11/03 06:01:13;;;;;;;3.08;0.77;;;12.50;71.80;;;;;;2208601;58;21082;-67
2023/11/03 06:03:41;;;;;;;3.72;0.73;;;12.40;71.70;;;;;;2417572;56;20946;-68
2023/11/03 06:06:07;;;;;;;2.37;0.62;;;12.40;71.70;;;;;;2208532;57;21070;-68
2023/11/03 06:08:33;;;;;;;5.00;0.60;;;12.50;71.80;;;;;;2208981;57;21439;-67
2023/11/03 06:11:00;;;;;;;2.90;0.82;;;12.50;71.70;;;;;;2209287;57;20986;-68
2023/11/03 06:13:37;;;;;;;1.58;0.60;;;12.50;71.70;;;;;;2208425;57;20962;-67
2023/11/03 06:16:07;;;;;;;2.62;0.80;;;12.50;71.30;;;;;;2207745;57;21095;-67
2023/11/03 06:18:33;;;;;;;2.25;0.70;;;12.50;71.50;;;;;;2204271;57;21070;-67
2023/11/03 06:21:02;;;;;;;2.30;0.60;;;12.50;71.60;;;;;;2202272;57;20994;-67
2023/11/03 06:23:28;;;;;;;1.83;0.70;;;12.50;71.60;;;;;;2207292;57;21008;-67
2023/11/03 06:25:56;;;;;;;1.60;0.50;;;12.50;71.60;;;;;;2422058;56;20969;-67
2023/11/03 06:28:23;;;;;;;5.10;0.70;;;12.50;71.60;;;;;;2425629;57;21149;-67
2023/11/03 06:30:51;;;;;;;2.60;0.80;;;12.50;71.60;;;;;;2426044;57;21081;-67
2023/11/03 06:33:18;;;;;;;2.47;0.60;;;12.50;71.60;;;;;;2425071;57;21062;-67
2023/11/03 06:35:44;;;;;;;2.15;0.62;;;12.50;71.60;;;;;;2208297;59;20953;-67
2023/11/03 06:38:11;;;;;;;1.87;0.60;;;12.60;71.60;;;;;;2425532;56;20934;-68
2023/11/03 06:40:38;;;;;;;2.78;0.77;;;12.50;71.50;;;;;;2208922;58;20969;-68
2023/11/03 06:43:06;;;;;;;2.80;0.70;;;12.50;71.50;;;;;;2207441;57;21054;-66
2023/11/03 06:45:32;;;;;;;3.25;0.90;;;12.50;71.50;;;;;;2419255;56;20966;-68
2023/11/03 06:47:59;;;;;;;2.30;0.80;;;12.50;71.50;;;;;;2425587;57;20985;-67
2023/11/03 06:50:25;;;;;;;2.78;0.95;;;12.50;71.50;;;;;;2207975;58;21422;-68
2023/11/03 06:52:55;;;;;;;2.85;0.57;;;12.50;71.40;;;;;;2208557;59;20997;-68
2023/11/03 06:55:22;;;;;;;2.70;1.00;;;12.50;71.50;;;;;;2425897;56;21006;-68
2023/11/03 06:57:51;;;;;;;5.78;1.02;;;12.50;71.50;;;;;;2207790;58;20970;-68
2023/11/03 07:00:18;;;;;;;2.97;0.80;;;12.50;71.40;;;;;;2209023;58;21323;-68
2023/11/03 07:02:44;;;;;;;3.75;0.90;;;12.50;71.50;;;;;;2427043;57;21013;-68
2023/11/03 07:05:13;;;;;;;2.45;0.70;;;12.50;71.50;;;;;;2203925;57;21111;-69
2023/11/03 07:07:39;;;;;;;3.55;0.98;;;12.50;71.50;;;;;;2204821;57;20938;-67
2023/11/03 07:10:08;;;;;;;2.78;0.82;;;12.50;71.50;;;;;;2426232;57;21441;-68
2023/11/03 07:12:36;;;;;;;4.20;0.82;;;12.50;71.60;;;;;;2208861;59;20985;-68
2023/11/03 07:15:04;;;;;;;2.25;0.80;;;12.50;71.50;;;;;;2207575;57;20981;-67
2023/11/03 07:17:31;;;;;;;5.20;1.40;;;12.50;71.70;;;;;;2210158;58;20977;-67
2023/11/03 07:20:00;;;;;;;2.20;0.77;;;12.40;71.60;;;;;;2417205;56;21010;-68
2023/11/03 07:22:29;;;;;;;4.62;0.90;;;12.50;71.70;;;;;;2426541;57;20981;-67
2023/11/03 07:24:55;;;;;;;2.67;0.82;;;12.50;71.70;;;;;;2208204;58;21051;-68
2023/11/03 07:27:21;;;;;;;4.82;1.30;;;12.50;71.80;;;;;;2426119;57;20987;-68
2023/11/03 07:29:48;;;;;;;4.78;1.12;;;12.50;71.80;;;;;;2209331;58;20994;-68
2023/11/03 07:32:16;;;;;;;5.05;0.88;;;12.50;71.90;;;;;;2425961;56;20946;-68
2023/11/03 07:34:42;;;;;;;3.50;0.95;;;12.50;71.90;;;;;;2208504;58;20958;-67
2023/11/03 07:37:08;;;;;;;2.78;1.00;;;12.60;72.00;;;;;;2426022;57;21619;-69
2023/11/03 07:39:36;;;;;;;4.05;0.90;;;12.50;71.90;;;;;;2426815;57;21042;-68
2023/11/03 07:42:03;;;;;;;5.62;1.35;;;12.50;71.90;;;;;;2205616;57;20971;-68
2023/11/03 07:44:31;;;;;;;3.22;1.15;;;12.50;71.90;;;;;;2204798;57;20978;-68
2023/11/03 07:46:58;;;;;;;3.17;1.08;;;12.50;71.90;;;;;;2426232;57;21050;-67
2023/11/03 07:49:24;;;;;;;4.07;0.90;;;12.50;71.90;;;;;;2208180;58;20970;-68
2023/11/03 07:51:51;;;;;;;2.28;0.75;;;12.50;71.90;;;;;;2202362;57;21010;-67
2023/11/03 07:54:19;;;;;;;6.85;1.02;;;12.50;72.00;;;;;;2184116;58;20957;-67
2023/11/03 07:56:45;;;;;;;3.08;1.10;;;12.60;72.10;;;;;;2208758;58;21002;-69
2023/11/03 07:59:12;;;;;;;2.90;0.90;;;12.50;72.00;;;;;;2420749;56;20983;-67
2023/11/03 08:01:38;;;;;;;2.97;0.93;;;12.60;72.10;;;;;;2203072;57;21046;-67
2023/11/03 08:04:06;;;;;;;3.22;1.00;;;12.60;72.10;;;;;;2416904;56;20994;-68
2023/11/03 08:06:33;;;;;;;4.22;0.80;;;12.60;72.20;;;;;;2207444;57;21148;-69
2023/11/03 08:09:00;;;;;;;2.75;1.12;;;12.60;72.20;;;;;;2426370;57;20954;-68
2023/11/03 08:11:27;;;;;;;6.18;0.82;;;12.60;72.10;;;;;;2425948;57;22198;-68
2023/11/03 08:13:53;;;;;;;3.90;1.00;;;12.60;72.00;;;;;;2209082;59;21022;-67
2023/11/03 08:16:20;;;;;;;5.65;1.10;;;12.60;72.00;;;;;;2426155;57;20986;-68
2023/11/03 08:18:47;;;;;;;3.90;1.45;;;12.60;72.00;;;;;;2207379;57;21401;-68
2023/11/03 08:21:13;;;;;;;4.95;1.85;;;12.70;72.10;;;;;;2202859;57;20970;-69
2023/11/03 08:23:40;;;;;;;6.50;3.62;;;12.70;72.10;;;;;;2426215;57;21848;-68
2023/11/03 08:26:07;;;;;;;6.60;3.53;;;12.70;72.10;;;;;;2419512;56;21427;-67
2023/11/03 08:28:33;;;;;;;5.53;2.28;;;12.70;72.20;;;;;;2204873;57;21811;-68
2023/11/03 08:31:02;;;;;;;5.22;1.87;;;12.70;72.10;;;;;;2208733;59;20998;-67
2023/11/03 08:33:29;;;;;;;3.72;1.33;;;12.70;72.20;;;;;;2208467;58;20978;-68
2023/11/03 08:35:56;;;;;;;5.35;1.65;;;12.70;72.10;;;;;;2421557;56;21030;-67
2023/11/03 08:38:22;;;;;;;2.72;0.98;;;12.70;72.10;;;;;;2201929;57;20962;-68
2023/11/03 08:40:49;;;;;;;2.78;1.30;;;12.70;72.10;;;;;;2206293;57;21006;-68
2023/11/03 08:43:16;;;;;;;5.18;1.08;;;12.80;72.20;;;;;;2425577;57;21478;-68
2023/11/03 08:45:43;;;;;;;3.67;1.50;;;12.80;72.20;;;;;;2208594;59;21009;-68
2023/11/03 08:48:11;;;;;;;4.30;1.20;;;12.80;72.10;;;;;;2425697;57;20966;-67
2023/11/03 08:50:38;;;;;;;4.47;0.90;;;12.80;72.10;;;;;;2207368;59;21960;-67
2023/11/03 08:53:07;;;;;;;4.20;1.20;;;12.80;72.80;;;;;;2425164;57;21002;-67
2023/11/03 08:55:34;;;;;;;5.87;1.23;;;12.80;72.10;;;;;;2414325;56;21777;-68
2023/11/03 08:58:00;;;;;;;2.55;0.95;;;12.80;72.10;;;;;;2207850;58;21506;-69
2023/11/03 09:00:27;;;;;;;3.50;0.90;;;12.80;72.00;;;;;;2422368;56;21039;-67
2023/11/03 09:02:55;;;;;;;2.80;0.80;;;12.90;72.10;;;;;;2417158;56;21018;-68
2023/11/03 09:05:23;;;;;;;3.33;1.20;;;12.90;72.10;;;;;;2207926;57;20989;-67
2023/11/03 09:07:51;;;;;;;3.55;1.12;;;12.90;72.10;;;;;;2425237;56;20982;-68
2023/11/03 09:10:18;;;;;;;2.25;0.80;;;12.90;72.00;;;;;;2425377;57;21761;-67
2023/11/03 09:12:46;;;;;;;4.95;1.30;;;12.90;72.00;;;;;;2209923;58;21033;-69
2023/11/03 09:15:15;;;;;;;7.03;1.30;;;13.00;72.10;;;;;;2209353;57;21081;-68
2023/11/03 09:17:45;;;;;;;3.35;1.20;;;12.90;71.90;;;;;;2425514;56;21001;-68
2023/11/03 09:20:17;;;;;;;2.62;0.90;;;12.90;71.90;;;;;;2202813;57;20986;-66
2023/11/03 09:22:45;;;;;;;;;;;13.00;72.00;;;;;;2428966;56;20998;-68
2023/11/03 09:25:12;;;;;;;2.65;0.70;;;13.00;70.70;;;;;;2425735;56;20080;-68
2023/11/03 09:27:39;;;;;;;3.10;0.88;;;13.00;71.80;;;;;;2416884;56;20962;-68
2023/11/03 09:30:10;;;;;;;4.90;1.27;;;13.00;71.90;;;;;;2206953;57;21010;-67
2023/11/03 09:32:40;;;;;;;4.62;1.12;;;13.00;71.90;;;;;;2208194;57;20978;-68
2023/11/03 09:35:09;;;;;;;6.05;2.78;;;13.00;71.80;;;;;;2201310;57;21053;-68
2023/11/03 09:37:35;;;;;;;5.00;2.25;;;13.00;71.90;;;;;;2425558;57;20962;-69
2023/11/03 09:40:02;;;;;;;3.83;1.50;;;13.00;72.00;;;;;;2208438;59;20938;-67
2023/11/03 09:42:28;;;;;;;3.85;1.50;;;13.00;72.10;;;;;;2426129;57;21034;-68
2023/11/03 09:44:57;;;;;;;4.25;1.98;;;13.10;72.10;;;;;;2208213;58;20962;-67
2023/11/03 09:47:25;;;;;;;6.18;2.80;;;13.10;72.10;;;;;;2207486;58;21012;-67
2023/11/03 09:49:57;;;;;;;8.13;4.00;;;13.10;71.90;;;;;;2208769;59;21053;-67
2023/11/03 09:52:24;;;;;;;7.62;3.70;;;13.10;71.90;;;;;;2424534;56;21928;-67
2023/11/03 09:54:51;;;;;;;4.97;2.70;;;13.10;71.80;;;;;;2414873;56;21063;-67
2023/11/03 09:57:18;;;;;;;6.60;2.70;;;13.10;71.80;;;;;;2200892;57;20950;-68
2023/11/03 09:59:49;;;;;;;5.50;2.20;;;13.20;72.00;;;;;;2208611;59;21106;-68
2023/11/03 10:02:19;;;;;;;3.43;1.50;;;13.20;72.00;;;;;;2426332;56;21022;-68
2023/11/03 10:04:45;;;;;;;3.97;1.25;;;13.20;72.10;;;;;;2426275;56;21549;-68
2023/11/03 10:07:12;;;;;;;2.22;0.90;;;13.20;72.00;;;;;;2209927;56;21400;-68
2023/11/03 10:09:45;;;;;;;4.22;0.80;;;13.20;71.90;;;;;;2208867;57;20949;-69
2023/11/03 10:12:20;;;;;;;2.12;0.57;;;13.30;71.90;;;;;;2426104;57;20946;-69
2023/11/03 10:14:48;;;;;;;3.47;0.70;;;13.30;71.30;;;;;;2425590;57;20998;-68
2023/11/03 10:17:20;;;;;;;3.58;0.80;;;13.30;71.70;;;;;;2208025;59;21033;-69
2023/11/03 10:19:46;;;;;;;3.33;0.50;;;13.30;71.70;;;;;;2425804;56;21722;-68
2023/11/03 10:22:12;;;;;;;2.45;0.60;;;13.30;71.60;;;;;;2426035;57;20942;-68
2023/11/03 10:24:39;;;;;;;2.40;0.60;;;13.30;71.70;;;;;;2208058;58;21887;-69
2023/11/03 10:27:06;;;;;;;2.25;0.60;;;13.30;71.70;;;;;;2426609;57;21531;-68
2023/11/03 10:29:33;;;;;;;2.12;0.80;;;13.30;71.60;;;;;;2207835;59;20981;-68
2023/11/03 10:32:00;;;;;;;4.65;1.55;;;13.30;71.60;;;;;;2209146;58;20938;-68
2023/11/03 10:34:27;;;;;;;7.70;2.55;;;13.30;71.70;;;;;;2209761;56;21018;-69
2023/11/03 10:36:56;;;;;;;7.30;3.00;;;13.40;71.80;;;;;;2202888;57;20949;-69
2023/11/03 10:39:25;;;;;;;7.97;3.35;;;13.40;71.80;;;;;;2208231;57;21030;-69
2023/11/03 10:41:52;;;;;;;7.43;3.72;;;13.40;71.80;;;;;;2419297;56;20972;-69
2023/11/03 10:44:21;;;;;;;6.05;3.22;;;13.40;71.80;;;;;;2208224;57;21022;-69
2023/11/03 10:46:56;;;;;;;8.60;3.78;;;13.40;71.70;;;;;;2200455;57;21041;-68
2023/11/03 10:49:32;;;;;;;5.82;2.42;;;13.50;71.60;;;;;;2208222;57;20970;-69
2023/11/03 10:53:03;;;;;;;5.90;1.23;;;13.50;71.50;;;;;;2204660;57;21551;-68
2023/11/03 10:55:30;;;;;;;3.47;1.10;;;13.50;70.10;;;;;;2208057;57;21769;-68
2023/11/03 10:57:59;;;;;;;2.78;0.65;;;13.50;71.40;;;;;;2208585;58;21038;-69
2023/11/03 11:03:21;;;;;;;2.87;1.08;;;13.50;72.10;;;;;;2207943;57;21074;-68
2023/11/03 11:06:24;;;;;;;1.48;0.50;;;13.50;70.00;;;;;;2425802;57;20973;-67
2023/11/03 11:08:53;;;;;;;;;;;13.60;70.60;;;;;;2209042;57;20999;-67
2023/11/03 11:11:20;;;;;;;2.67;0.70;;;13.60;70.00;;;;;;2202481;57;20597;-69
2023/11/03 11:13:46;;;;;;;3.03;0.90;;;13.60;71.30;;;;;;2425711;56;21037;-68
2023/11/03 11:16:13;;;;;;;1.73;0.70;;;13.60;71.30;;;;;;2208671;58;21037;-66
2023/11/03 11:18:42;;;;;;;1.90;0.80;;;13.50;71.20;;;;;;2208209;58;20985;-69
2023/11/03 11:21:11;;;;;;;2.58;0.50;;;13.50;71.20;;;;;;2424732;56;21006;-68
2023/11/03 11:23:39;;;;;;;2.22;0.55;;;13.50;71.30;;;;;;2201480;57;21050;-68
2023/11/03 11:26:18;;;;;;;1.83;0.50;;;13.50;71.30;;;;;;2207818;59;20994;-68
2023/11/03 11:28:53;;;;;;;1.12;0.57;;;13.50;70.80;;;;;;2422164;56;21038;-69
2023/11/03 11:31:56;;;;;;;3.80;0.70;;;13.50;71.20;;;;;;2416288;56;20970;-68
2023/11/03 11:34:23;;;;;;;1.73;0.50;;;13.50;70.10;;;;;;2418886;56;21073;-69
2023/11/03 11:36:51;;;;;;;1.45;0.57;;;13.50;71.30;;;;;;2209560;56;21039;-69
2023/11/03 11:39:20;;;;;;;2.08;0.80;;;13.50;71.40;;;;;;2202265;57;20994;-69
2023/11/03 11:41:51;;;;;;;2.10;0.62;;;13.50;71.40;;;;;;2425622;57;20946;-69
2023/11/03 11:44:19;;;;;;;2.33;0.90;;;13.60;71.50;;;;;;2425852;57;21054;-69
2023/11/03 11:46:59;;;;;;;1.77;0.77;;;13.50;71.70;;;;;;2425847;57;20997;-70
2023/11/03 11:49:27;;;;;;;2.22;0.60;;;13.50;71.30;;;;;;2421651;56;21086;-70
2023/11/03 11:51:55;;;;;;;3.10;0.77;;;13.50;71.80;;;;;;2419207;56;20954;-70
2023/11/03 11:54:21;;;;;;;5.03;0.93;;;13.60;71.80;;;;;;2425243;57;21105;-70
2023/11/03 11:56:48;;;;;;;1.62;0.60;;;13.60;71.90;;;;;;2208817;58;21800;-69
2023/11/03 11:59:16;;;;;;;2.00;0.70;;;13.60;71.90;;;;;;2208405;59;20982;-68
2023/11/03 12:01:43;;;;;;;2.87;0.85;;;13.60;71.90;;;;;;2425577;56;21059;-70
2023/11/03 12:04:11;;;;;;;3.12;0.80;;;13.60;71.90;;;;;;2426663;56;20977;-69
2023/11/03 12:06:39;;;;;;;2.10;0.70;;;13.60;71.90;;;;;;2425318;56;21045;-68
2023/11/03 12:09:07;;;;;;;3.15;1.08;;;13.60;71.80;;;;;;2425800;57;21054;-69
2023/11/03 12:11:33;;;;;;;3.33;0.75;;;13.60;71.90;;;;;;2426203;56;21871;-70
2023/11/03 12:14:00;;;;;;;2.83;1.17;;;13.70;71.90;;;;;;2423801;56;21003;-69
2023/11/03 12:16:27;;;;;;;2.97;0.65;;;13.70;71.90;;;;;;2417602;56;21037;-69
2023/11/03 12:18:56;;;;;;;3.60;0.95;;;13.70;71.90;;;;;;2425838;56;21019;-69
2023/11/03 12:21:25;;;;;;;6.93;1.92;;;13.80;72.00;;;;;;2208225;57;20970;-69
2023/11/03 12:23:55;;;;;;;3.83;1.30;;;13.70;71.90;;;;;;2426094;57;20986;-69
2023/11/03 12:26:22;;;;;;;4.70;1.33;;;13.70;71.90;;;;;;2425747;57;20970;-68
2023/11/03 12:28:49;;;;;;;7.90;1.60;;;13.70;71.90;;;;;;2208941;58;21025;-69
2023/11/03 12:31:16;;;;;;;2.97;0.93;;;13.80;72.30;;;;;;2393354;56;21074;-69
2023/11/03 12:33:43;;;;;;;3.30;1.00;;;13.80;72.20;;;;;;2426167;57;20981;-69
2023/11/03 12:36:10;;;;;;;2.87;0.70;;;13.80;72.40;;;;;;2426470;57;21065;-69
2023/11/03 12:38:45;;;;;;;2.55;0.82;;;13.90;72.30;;;;;;2207978;58;21031;-68
2023/11/03 12:41:19;;;;;;;3.30;0.80;;;13.90;71.90;;;;;;2209860;59;21954;-69
2023/11/03 12:44:05;;;;;;;1.87;0.70;;;13.90;71.90;;;;;;2202043;57;21017;-67
2023/11/03 12:46:35;;;;;;;2.70;0.70;;;14.00;71.70;;;;;;2425488;56;20974;-67
2023/11/03 12:49:08;;;;;;;2.47;0.60;;;14.00;72.40;;;;;;2208784;58;21062;-69
2023/11/03 12:51:35;;;;;;;2.55;0.65;;;14.00;72.00;;;;;;2207937;58;20990;-69
2023/11/03 12:54:02;;;;;;;2.15;0.62;;;14.00;72.20;;;;;;2427037;57;20940;-68